This is the latest recevied weather packets stored in our database for station/object EB2EMZ-W. If no packets are shown the sender has not sent any weather packets the latest 10 day(s).
| Time | Temp. | Humidity | Pressure | Rain* | Wind** | Luminosity | Snow |
|---|---|---|---|---|---|---|---|
| 1788209469 | 18.89° C | 66% | 1007 hPa | 0 mm | - | - | - |
| 1788207639 | 19.44° C | 63% | 1007 hPa | 0 mm | - | - | - |
| 1788205819 | 20.56° C | 58% | 1006 hPa | 0 mm | - | - | - |
| 1788204000 | 21.11° C | 52% | 1006 hPa | 0 mm | - | - | - |
| 1788202178 | 21.67° C | 48% | 1006 hPa | 0 mm | - | - | - |
| 1788200359 | 22.22° C | 45% | 1008 hPa | 0 mm | - | - | - |
| 1788198538 | 23.33° C | 42% | 1006 hPa | 0 mm | - | - | - |
| 1788196718 | 23.89° C | 41% | 1006 hPa | 0 mm | - | - | - |
| 1788194898 | 24.44° C | 40% | 1006 hPa | 0 mm | - | - | - |
| 1788193076 | 24.44° C | 39% | 1006 hPa | 0 mm | - | - | - |
| 1788191257 | 27.22° C | 31% | 1005 hPa | 0 mm | - | - | - |
| 1788189437 | 24.44° C | 37% | 1006 hPa | 0 mm | - | - | - |
| 1788187616 | 23.89° C | 36% | 1006 hPa | 0 mm | - | - | - |
| 1788185795 | 25° C | 35% | 1006 hPa | 0 mm | - | - | - |
| 1788183975 | 25° C | 35% | 1006 hPa | 0 mm | - | - | - |
| 1788182152 | 23.89° C | 34% | 1006 hPa | 0 mm | - | - | - |
| 1788180332 | 25° C | 33% | 1006 hPa | 0 mm | - | - | - |
| 1788178510 | 25.56° C | 36% | 1007 hPa | 0 mm | - | - | - |
| 1788176688 | 23.89° C | 42% | 1007 hPa | 0 mm | - | - | - |
| 1788174868 | 23.33° C | 43% | 1007 hPa | 0 mm | - | - | - |
| 1788173046 | 23.89° C | 40% | 1007 hPa | 0 mm | - | - | - |
| 1788171226 | 23.33° C | 43% | 1007 hPa | 0 mm | - | - | - |
| 1788169404 | 23.33° C | 45% | 1007 hPa | 0 mm | - | - | - |
| 1788167584 | 22.22° C | 53% | 1007 hPa | 0 mm | - | - | - |
| 1788165762 | 21.11° C | 54% | 1006 hPa | 0 mm | - | - | - |
* Rain latest hour (hover to see other rain measurements)
** Current wind speed in m/s (hover to see current wind gust speed)